Terminal Aerodrome Forecast
Issued by NWS Cleveland, OH

Home | Current Version | Previous Version | Graphics & Text | Print | Product List | Glossary Off
Versions: 1 2 3 4 5 6 7 8 9 10 11 12 13 14 15

000
FTUS41 KCLE 122300
TAFTOL
TAF
KTOL 122330Z 1300/1324 22008KT P6SM SCT050
      TEMPO 1301/1302 P6SM -SHRA
     FM130500 24010KT P6SM VCTS SCT025 OVC050CB
      TEMPO 1307/1310 VRB15G35KT 2SM TSRA BR SCT015 OVC025CB
     FM131100 23010G18KT 6SM -SHRA BKN035 OVC100
     FM131500 26012G20KT P6SM BKN100 OVC200=

USA.gov is the U.S. government's official web portal to all federal, state and local government web resources and services.